KFHU/FHU METAR and TAF weather

Enter ICAO airport designator
Station Type Date Time Source
KFHU METAR 2019/02/17 07:58 UTC NOAA

KFHU 170758Z AUTO 28007KT 10SM CLR 02/M04 A2997 RMK AO2 SLP128 T00151043


Station Type Date Time Source
KFHU Decoded METAR 2019/02/17 07:58 UTC NOAA

Fort Huachuca, Libby AAF Ft Huachuca, AZ, United States (KFHU) 46-98N 110-20W
Feb 17, 2019 - 02:58 AM EST / 2019.02.17 0758 UTC
Wind: from the W (280 degrees) at 8 MPH (7 KT):0
Visibility: 10 mile(s):0
Sky conditions: clear
Temperature: 34.7 F (1.5 C)
Windchill: 28 F (-2 C):1
Dew Point: 24.3 F (-4.3 C)
Relative Humidity: 65%
Pressure (altimeter): 29.97 in. Hg (1014 hPa)
ob: KFHU 170758Z AUTO 28007KT 10SM CLR 02/M04 A2997 RMK AO2 SLP128 T00151043
cycle: 8

Station Type Date Time Source
KFHU TAF 2019/02/16 10:06 UTC NOAA

TAF KFHU 161000Z 1610/1716 VRB06KT 9000 BR FEW009 BKN020 QNH2995INS
TEMPO 1610/1615 BKN009
BECMG 1614/1615 29009KT 9999 NSW BKN015 OVC030 QNH2998INS
BECMG 1616/1617 28012KT 9999 BKN030 QNH2999INS
BECMG 1620/1621 27015G25KT 9999 SCT040 BKN180 520009 QNH2991INS
BECMG 1700/1701 26012KT 9999 FEW030 BKN200 QNH2992INS
BECMG 1702/1703 VRB06KT 9999 FEW050 SCT200 QNH2994INS TX10/1622Z TN03/1613Z LAST NO
AMDS AFT 1614 NEXT 1902


Example: see airport list